Time;durP1;ratioP1;P1;durP2;ratioP2;P2;SDS_P1;SDS_P2;PMS_P1;PMS_P2;Temp;Humidity;BMP_temperature;BMP_pressure;BME280_temperature;BME280_humidity;BME280_pressure;Samples;Min_cycle;Max_cycle;Signal;HPM_P1;HPM_P2
2021/05/11 00:02:19;;;;;;;9.60;6.50;;;22.80;90.90;;;;;;5074950;28;20474;-86
2021/05/11 00:04:44;;;;;;;10.68;6.47;;;22.80;90.90;;;;;;5075487;28;20031;-86
2021/05/11 00:07:10;;;;;;;8.68;6.68;;;22.80;90.90;;;;;;5094391;28;20460;-85
2021/05/11 00:09:36;;;;;;;9.90;6.80;;;22.80;90.90;;;;;;5058236;28;20034;-85
2021/05/11 00:12:01;;;;;;;10.43;7.15;;;22.80;90.90;;;;;;5092647;28;20059;-86
2021/05/11 00:14:27;;;;;;;10.48;6.82;;;22.80;90.90;;;;;;5093046;28;20085;-85
2021/05/11 00:16:53;;;;;;;9.40;6.80;;;22.80;90.90;;;;;;5074997;28;20401;-85
2021/05/11 00:19:18;;;;;;;13.32;8.23;;;22.80;91.10;;;;;;5074520;28;20032;-88
2021/05/11 00:21:44;;;;;;;10.00;7.05;;;22.80;90.90;;;;;;5092648;28;20477;-85
2021/05/11 00:24:10;;;;;;;10.60;7.35;;;22.80;90.80;;;;;;5074511;28;20120;-85
2021/05/11 00:26:38;;;;;;;10.63;7.45;;;22.80;90.80;;;;;;5074092;28;20035;-86
2021/05/11 00:29:05;;;;;;;10.98;7.88;;;22.80;90.80;;;;;;5073937;28;20094;-85
2021/05/11 00:31:31;;;;;;;11.07;7.75;;;22.80;90.80;;;;;;5074521;28;20415;-85
2021/05/11 00:33:57;;;;;;;10.82;7.65;;;22.80;90.90;;;;;;5092447;28;20066;-85
2021/05/11 00:36:23;;;;;;;11.23;8.23;;;22.80;90.90;;;;;;5094874;28;20052;-86
2021/05/11 00:38:49;;;;;;;12.13;8.50;;;22.80;90.90;;;;;;5096153;28;20031;-85
2021/05/11 00:41:15;;;;;;;11.10;8.48;;;22.80;90.90;;;;;;5061287;28;20035;-85
2021/05/11 00:43:42;;;;;;;10.70;7.82;;;22.80;90.90;;;;;;5077701;28;20370;-85
2021/05/11 00:46:08;;;;;;;11.45;7.75;;;22.80;90.90;;;;;;5061376;28;20056;-85
2021/05/11 00:48:33;;;;;;;11.07;8.25;;;22.80;90.80;;;;;;5095948;28;20441;-86
2021/05/11 00:50:59;;;;;;;12.32;9.60;;;22.80;90.80;;;;;;5062117;28;20466;-85
2021/05/11 00:53:25;;;;;;;12.30;8.98;;;22.80;90.80;;;;;;5096029;28;20470;-86
2021/05/11 00:55:50;;;;;;;12.75;9.25;;;22.80;90.80;;;;;;5077793;28;20028;-86
2021/05/11 00:58:16;;;;;;;11.30;8.75;;;22.80;90.80;;;;;;5096035;28;20032;-85
2021/05/11 01:00:41;;;;;;;11.50;8.23;;;22.80;90.80;;;;;;5060852;28;20521;-85
2021/05/11 01:03:07;;;;;;;12.25;9.05;;;22.80;90.80;;;;;;5095662;28;20024;-85
2021/05/11 01:05:33;;;;;;;9.73;7.55;;;22.80;90.80;;;;;;5060507;28;20123;-86
2021/05/11 01:07:59;;;;;;;10.85;8.30;;;22.80;90.90;;;;;;5060602;28;20028;-85
2021/05/11 01:10:24;;;;;;;13.80;9.18;;;22.80;90.80;;;;;;5095095;28;20488;-86
2021/05/11 01:12:50;;;;;;;10.98;8.30;;;22.80;90.80;;;;;;5077453;28;20032;-85
2021/05/11 01:15:17;;;;;;;10.20;8.40;;;22.80;90.80;;;;;;5077633;28;20073;-85
2021/05/11 01:17:50;;;;;;;12.07;8.50;;;22.80;90.80;;;;;;5076924;28;20133;-85
2021/05/11 01:20:25;;;;;;;12.77;9.38;;;22.80;90.80;;;;;;5095295;28;20036;-85
2021/05/11 01:25:32;;;;;;;11.52;8.40;;;22.80;90.80;;;;;;5079253;28;20028;-85
2021/05/11 01:28:26;;;;;;;10.00;8.25;;;22.70;90.80;;;;;;5076944;28;20052;-85
2021/05/11 01:31:14;;;;;;;13.63;9.80;;;22.80;90.80;;;;;;5077061;28;20111;-85
2021/05/11 01:47:45;;;;;;;13.23;9.40;;;22.70;90.80;;;;;;5077764;28;20028;-85
2021/05/11 01:55:22;;;;;;;13.25;9.85;;;22.70;90.90;;;;;;5094961;28;20034;-85
2021/05/11 02:24:47;;;;;;;12.85;10.52;;;22.70;90.90;;;;;;5079063;28;20058;-85
2021/05/11 02:27:13;;;;;;;15.73;11.23;;;22.70;90.90;;;;;;5059634;28;20032;-85
2021/05/11 02:29:39;;;;;;;14.07;11.52;;;22.70;90.90;;;;;;5058735;28;20044;-86
2021/05/11 02:32:05;;;;;;;15.00;10.85;;;22.70;90.90;;;;;;5094531;28;20477;-86
2021/05/11 02:34:30;;;;;;;16.90;11.23;;;22.70;90.90;;;;;;5075766;28;20119;-85
2021/05/11 02:36:56;;;;;;;15.60;11.20;;;22.70;90.90;;;;;;5075386;28;20107;-85
2021/05/11 02:39:21;;;;;;;14.00;11.38;;;22.70;90.90;;;;;;5093948;28;20538;-85
2021/05/11 02:41:47;;;;;;;14.70;11.25;;;22.70;90.90;;;;;;5093623;28;20034;-85
2021/05/11 02:44:16;;;;;;;14.70;11.13;;;22.70;90.90;;;;;;5093786;28;20046;-85
2021/05/11 02:46:42;;;;;;;14.48;11.35;;;22.70;90.90;;;;;;5076115;28;20024;-84
2021/05/11 02:49:08;;;;;;;15.38;12.15;;;22.70;90.90;;;;;;5075480;28;20047;-84
2021/05/11 02:51:34;;;;;;;17.17;12.70;;;22.70;90.90;;;;;;5093547;28;20028;-84
2021/05/11 02:53:59;;;;;;;15.75;12.93;;;22.70;91.10;;;;;;5075113;28;20028;-84
2021/05/11 02:56:25;;;;;;;14.93;11.68;;;22.70;90.90;;;;;;5093239;28;20024;-85
2021/05/11 02:58:51;;;;;;;17.75;12.18;;;22.70;90.90;;;;;;5074636;28;20032;-85
2021/05/11 03:01:17;;;;;;;16.98;12.20;;;22.70;90.90;;;;;;5093571;28;20024;-85
2021/05/11 03:03:43;;;;;;;16.63;12.30;;;22.70;90.90;;;;;;5074747;28;20021;-85
2021/05/11 03:06:10;;;;;;;18.35;13.07;;;22.70;90.90;;;;;;5075625;28;20042;-85
2021/05/11 03:08:35;;;;;;;19.38;13.88;;;22.70;90.90;;;;;;5093288;28;20043;-84
2021/05/11 03:11:01;;;;;;;14.55;11.82;;;22.70;90.90;;;;;;5075097;28;20456;-85
2021/05/11 03:13:27;;;;;;;15.95;12.57;;;22.70;90.90;;;;;;5058272;28;20466;-85
2021/05/11 03:15:52;;;;;;;17.58;13.57;;;22.70;90.90;;;;;;5058670;28;20028;-85
2021/05/11 03:18:18;;;;;;;17.60;13.43;;;22.70;90.90;;;;;;5092809;28;20043;-85
2021/05/11 03:20:44;;;;;;;17.13;13.70;;;22.70;90.90;;;;;;5058283;28;20038;-85
2021/05/11 03:23:09;;;;;;;17.15;13.20;;;22.70;90.90;;;;;;5075580;28;20473;-85
2021/05/11 03:25:35;;;;;;;15.85;13.07;;;22.70;90.90;;;;;;5093191;28;20027;-84
2021/05/11 03:28:00;;;;;;;16.65;13.48;;;22.70;90.90;;;;;;5057905;28;20431;-84
2021/05/11 03:30:26;;;;;;;18.45;13.57;;;22.70;90.90;;;;;;5093352;28;20020;-86
2021/05/11 03:32:52;;;;;;;19.00;14.02;;;22.70;90.90;;;;;;5092801;28;20024;-85
2021/05/11 03:35:18;;;;;;;16.63;13.68;;;22.70;90.90;;;;;;5058546;28;20028;-84
2021/05/11 03:37:43;;;;;;;17.77;13.82;;;22.70;90.90;;;;;;5058032;28;20188;-86
2021/05/11 03:40:09;;;;;;;15.50;12.63;;;22.70;90.90;;;;;;5058277;28;20039;-85
2021/05/11 03:42:47;;;;;;;16.75;13.48;;;22.70;90.90;;;;;;5074632;28;20035;-84
2021/05/11 03:45:13;;;;;;;18.77;13.18;;;22.70;90.90;;;;;;5093388;28;20037;-85
2021/05/11 03:47:44;;;;;;;19.42;15.23;;;22.70;90.90;;;;;;5074910;28;20118;-85
2021/05/11 03:50:14;;;;;;;17.60;13.68;;;22.70;90.90;;;;;;5059193;28;20081;-85
2021/05/11 03:52:40;;;;;;;16.88;13.75;;;22.70;90.90;;;;;;5092933;28;20085;-85
2021/05/11 03:55:06;;;;;;;17.77;14.00;;;22.70;90.90;;;;;;5092783;28;20427;-86
2021/05/11 03:57:32;;;;;;;20.33;14.48;;;22.70;90.90;;;;;;5074902;28;20055;-85
2021/05/11 03:59:58;;;;;;;17.90;14.10;;;22.70;90.90;;;;;;5092891;28;20465;-84
2021/05/11 04:02:24;;;;;;;17.05;13.10;;;22.70;90.90;;;;;;5074945;28;20032;-83
2021/05/11 04:04:49;;;;;;;16.55;13.15;;;22.70;90.90;;;;;;5057916;28;20401;-86
2021/05/11 04:07:15;;;;;;;16.17;13.23;;;22.70;90.90;;;;;;5092593;28;20111;-86
2021/05/11 04:09:48;;;;;;;17.80;13.77;;;22.70;90.90;;;;;;5092812;28;20079;-86
2021/05/11 04:17:46;;;;;;;17.15;13.50;;;22.70;91.00;;;;;;5039035;28;20389;-86
2021/05/11 04:20:13;;;;;;;18.75;14.55;;;22.70;91.00;;;;;;5078152;28;20028;-84
2021/05/11 04:22:38;;;;;;;17.05;13.05;;;22.70;91.00;;;;;;5098434;28;20024;-84
2021/05/11 04:25:05;;;;;;;17.33;13.45;;;22.70;91.00;;;;;;5078809;28;20345;-85
2021/05/11 04:27:30;;;;;;;15.55;13.10;;;22.70;91.00;;;;;;5078288;28;20123;-85
2021/05/11 04:30:00;;;;;;;15.93;12.98;;;22.70;91.00;;;;;;5096177;28;20131;-84
2021/05/11 04:32:25;;;;;;;17.75;13.60;;;22.70;91.00;;;;;;5078162;28;20135;-85
2021/05/11 04:34:51;;;;;;;17.88;13.90;;;22.70;91.00;;;;;;5095890;28;20138;-85
2021/05/11 04:37:17;;;;;;;17.02;13.60;;;22.70;91.00;;;;;;5096158;28;20024;-85
2021/05/11 04:39:43;;;;;;;17.70;13.88;;;22.70;91.00;;;;;;5061419;28;20024;-85
2021/05/11 04:42:08;;;;;;;17.10;13.75;;;22.70;91.00;;;;;;5061097;28;20166;-85
2021/05/11 04:44:35;;;;;;;16.80;13.50;;;22.70;91.00;;;;;;5061214;28;20054;-86
2021/05/11 04:47:08;;;;;;;16.48;13.15;;;22.70;91.00;;;;;;5061036;28;20028;-86
2021/05/11 04:49:34;;;;;;;17.70;14.45;;;22.70;91.00;;;;;;5096268;28;20065;-85
2021/05/11 04:51:59;;;;;;;16.52;13.55;;;22.70;91.00;;;;;;5077662;28;20036;-86
2021/05/11 04:54:25;;;;;;;17.08;13.75;;;22.60;91.00;;;;;;5078029;28;20028;-86
2021/05/11 04:56:51;;;;;;;15.48;12.43;;;22.60;91.00;;;;;;5095659;28;20481;-86
2021/05/11 04:59:17;;;;;;;19.38;13.90;;;22.60;91.00;;;;;;5077641;28;20039;-85
2021/05/11 05:01:45;;;;;;;14.57;12.20;;;22.70;91.00;;;;;;5096126;28;20489;-86
2021/05/11 05:04:12;;;;;;;15.15;12.48;;;22.70;91.00;;;;;;5061000;28;20032;-85
2021/05/11 05:06:38;;;;;;;15.65;13.00;;;22.70;91.00;;;;;;5077844;28;20366;-85
2021/05/11 05:09:04;;;;;;;15.55;12.68;;;22.60;91.00;;;;;;5095192;28;20058;-85
2021/05/11 05:11:29;;;;;;;16.67;13.00;;;22.60;91.00;;;;;;5077741;28;20043;-85
2021/05/11 05:13:55;;;;;;;14.80;12.45;;;22.60;91.00;;;;;;5077238;28;20032;-85
2021/05/11 05:16:20;;;;;;;15.90;13.05;;;22.70;91.00;;;;;;5095268;28;20031;-85
2021/05/11 05:18:46;;;;;;;16.45;12.65;;;22.60;91.00;;;;;;5095510;28;20170;-85
2021/05/11 05:21:13;;;;;;;16.92;12.73;;;22.60;91.00;;;;;;5076596;28;20032;-86
2021/05/11 05:23:41;;;;;;;18.00;12.88;;;22.60;91.00;;;;;;5095497;28;20029;-85
2021/05/11 05:26:10;;;;;;;14.98;12.05;;;22.70;91.00;;;;;;5077286;28;20038;-86
2021/05/11 05:28:39;;;;;;;14.57;11.63;;;22.70;91.00;;;;;;5077458;28;20485;-84
2021/05/11 05:31:05;;;;;;;15.18;11.63;;;22.60;91.00;;;;;;5076836;28;20026;-85
2021/05/11 05:33:39;;;;;;;16.05;12.63;;;22.60;91.00;;;;;;5094971;28;20539;-85
2021/05/11 05:36:06;;;;;;;14.87;12.00;;;22.60;91.00;;;;;;5076752;28;20431;-85
2021/05/11 05:38:33;;;;;;;16.27;11.75;;;22.60;91.00;;;;;;5060458;28;20058;-85
2021/05/11 05:41:02;;;;;;;16.20;11.75;;;22.70;91.10;;;;;;5094671;28;20112;-84
2021/05/11 05:43:28;;;;;;;14.25;11.43;;;22.60;91.00;;;;;;5076640;28;20047;-84
2021/05/11 05:45:54;;;;;;;13.25;11.18;;;22.60;91.00;;;;;;5076463;28;20036;-85
2021/05/11 05:48:20;;;;;;;17.35;12.63;;;22.60;91.30;;;;;;5060400;28;20066;-85
2021/05/11 05:50:48;;;;;;;13.18;10.98;;;22.70;91.10;;;;;;5094584;28;20110;-85
2021/05/11 05:53:21;;;;;;;13.82;10.77;;;22.60;91.00;;;;;;5094395;28;20048;-85
2021/05/11 05:55:46;;;;;;;12.82;10.80;;;22.70;91.10;;;;;;5060871;28;20447;-85
2021/05/11 05:58:12;;;;;;;14.27;10.55;;;22.70;91.10;;;;;;5094329;28;20032;-84
2021/05/11 06:00:38;;;;;;;13.65;9.98;;;22.70;91.10;;;;;;5076870;28;20032;-85
2021/05/11 06:03:18;;;;;;;12.48;10.23;;;22.70;91.10;;;;;;5059708;28;20363;-85
2021/05/11 06:05:43;;;;;;;12.23;9.80;;;22.70;91.10;;;;;;5094325;28;20069;-85
2021/05/11 06:08:09;;;;;;;13.38;10.55;;;22.70;91.10;;;;;;5075799;28;20028;-85
2021/05/11 06:10:35;;;;;;;12.10;9.13;;;22.70;91.10;;;;;;5043054;28;20086;-85
2021/05/11 06:13:13;;;;;;;11.57;9.73;;;22.70;91.10;;;;;;5094237;28;20043;-85
2021/05/11 06:18:23;;;;;;;11.25;9.45;;;22.70;91.20;;;;;;5094187;28;20066;-85
2021/05/11 06:20:48;;;;;;;11.20;8.77;;;22.70;91.20;;;;;;5093936;28;20078;-85
2021/05/11 06:23:14;;;;;;;11.88;9.45;;;22.70;91.20;;;;;;5075479;28;20418;-85
2021/05/11 06:25:44;;;;;;;13.30;8.95;;;22.70;91.20;;;;;;5094079;28;20024;-84
2021/05/11 06:28:10;;;;;;;11.75;8.73;;;22.70;91.20;;;;;;5059446;28;20066;-85
2021/05/11 06:30:36;;;;;;;10.35;8.70;;;22.70;91.20;;;;;;5094152;28;20080;-84
2021/05/11 06:33:01;;;;;;;11.13;8.82;;;22.70;91.20;;;;;;5075128;28;20063;-85
2021/05/11 06:35:29;;;;;;;9.63;8.18;;;22.70;91.10;;;;;;5094754;28;20177;-84
2021/05/11 06:37:56;;;;;;;11.80;8.57;;;22.70;91.10;;;;;;5059833;28;20024;-84
2021/05/11 06:40:23;;;;;;;10.48;7.60;;;22.70;91.10;;;;;;5092753;28;20028;-84
2021/05/11 06:42:48;;;;;;;9.50;7.38;;;22.70;91.10;;;;;;5058975;28;20145;-84
2021/05/11 06:50:41;;;;;;;9.70;7.28;;;22.80;91.10;;;;;;5093660;28;20036;-85
2021/05/11 06:53:12;;;;;;;7.50;6.45;;;22.80;91.10;;;;;;5076872;28;20024;-87
2021/05/11 06:55:41;;;;;;;7.82;6.45;;;22.80;91.10;;;;;;5075734;28;20028;-85
2021/05/11 06:58:10;;;;;;;7.60;6.10;;;22.80;91.00;;;;;;5094053;28;20035;-85
2021/05/11 07:00:41;;;;;;;7.90;6.10;;;22.80;91.00;;;;;;5094018;28;20035;-85
2021/05/11 07:03:07;;;;;;;7.85;6.47;;;22.80;91.10;;;;;;5096199;28;20024;-84
2021/05/11 07:05:36;;;;;;;6.85;6.15;;;22.80;91.10;;;;;;5077792;28;20043;-84
2021/05/11 07:10:41;;;;;;;6.75;5.22;;;22.80;91.00;;;;;;5098902;28;20089;-85
2021/05/11 07:13:10;;;;;;;7.45;5.53;;;22.80;91.10;;;;;;5061404;28;20557;-85
2021/05/11 07:15:40;;;;;;;7.10;5.72;;;22.80;91.10;;;;;;5094072;28;20024;-86
2021/05/11 07:18:13;;;;;;;6.15;4.97;;;22.90;91.20;;;;;;5075822;28;20028;-86
2021/05/11 07:20:41;;;;;;;6.22;5.40;;;22.80;91.20;;;;;;5094197;28;20016;-86
2021/05/11 07:23:07;;;;;;;4.90;4.35;;;22.90;91.20;;;;;;5080131;28;20027;-85
2021/05/11 07:25:55;;;;;;;5.63;4.47;;;22.90;91.20;;;;;;5077051;28;20028;-85
2021/05/11 07:30:54;;;;;;;4.70;4.20;;;22.90;91.20;;;;;;5095068;28;20056;-85
2021/05/11 07:33:21;;;;;;;5.07;4.07;;;22.90;91.10;;;;;;5075549;28;20105;-86
2021/05/11 07:35:47;;;;;;;5.18;3.97;;;22.90;91.10;;;;;;5057598;28;20032;-84
2021/05/11 07:38:13;;;;;;;5.00;3.80;;;22.90;91.10;;;;;;5074695;28;20059;-85
2021/05/11 07:40:39;;;;;;;4.95;3.45;;;22.90;91.10;;;;;;5093182;28;20113;-84
2021/05/11 07:43:05;;;;;;;4.50;3.58;;;22.90;91.10;;;;;;5058301;28;20035;-84
2021/05/11 08:10:19;;;;;;;2.92;2.22;;;22.90;91.00;;;;;;5082323;28;20062;-84
2021/05/11 08:15:30;;;;;;;2.88;2.00;;;22.90;90.90;;;;;;5098030;28;20107;-84
2021/05/11 08:28:17;;;;;;;2.20;1.92;;;22.90;90.90;;;;;;5096712;28;20153;-85
2021/05/11 08:30:43;;;;;;;1.42;1.33;;;22.90;90.90;;;;;;5097098;28;20082;-84
2021/05/11 08:33:08;;;;;;;2.47;2.08;;;22.90;90.90;;;;;;5078864;28;20068;-84
2021/05/11 08:35:34;;;;;;;2.70;1.52;;;22.90;90.90;;;;;;5078682;28;20109;-84
2021/05/11 08:38:00;;;;;;;2.60;1.60;;;22.90;91.00;;;;;;5078467;28;20078;-84
2021/05/11 08:40:25;;;;;;;2.35;1.75;;;22.90;90.90;;;;;;5078977;28;20098;-84
2021/05/11 08:42:51;;;;;;;1.92;1.33;;;22.90;91.00;;;;;;5079491;28;20024;-83
2021/05/11 08:45:17;;;;;;;2.17;1.40;;;23.00;91.00;;;;;;5046303;28;20119;-83
2021/05/11 08:47:50;;;;;;;1.73;1.40;;;23.00;91.00;;;;;;5062836;28;20043;-84
2021/05/11 08:50:24;;;;;;;1.45;1.20;;;22.90;91.00;;;;;;5097463;28;20032;-84
2021/05/11 08:59:52;;;;;;;2.72;1.33;;;22.90;91.00;;;;;;5078705;28;19908;-85
2021/05/11 09:25:58;;;;;;;2.08;1.52;;;22.90;91.50;;;;;;5095991;28;20043;-84
2021/05/11 10:36:34;;;;;;;1.13;1.02;;;23.10;92.00;;;;;;5094060;28;20040;-84
2021/05/11 10:39:34;;;;;;;1.52;1.10;;;23.00;92.00;;;;;;5093527;28;20035;-84
2021/05/11 10:46:32;;;;;;;1.50;1.15;;;23.00;92.00;;;;;;5048451;28;20466;-85
2021/05/11 10:48:22;;;;;;;1.48;1.13;;;23.10;92.10;;;;;;5093112;28;20093;-85
2021/05/11 10:50:53;;;;;;;1.38;1.00;;;23.10;92.10;;;;;;5075572;28;20077;-85
2021/05/11 10:53:38;;;;;;;1.10;1.00;;;23.10;92.10;;;;;;5093756;28;20028;-85
2021/05/11 10:56:27;;;;;;;1.00;0.90;;;23.10;92.10;;;;;;5075736;28;20059;-85
2021/05/11 11:02:03;;;;;;;;;;;23.10;92.10;;;;;;5091026;28;20047;-85
2021/05/11 11:04:33;;;;;;;1.10;1.00;;;23.10;92.40;;;;;;5077429;28;19915;-86
2021/05/11 11:07:07;;;;;;;0.90;0.80;;;23.10;92.20;;;;;;5093435;28;20028;-85
2021/05/11 11:09:41;;;;;;;0.90;0.80;;;23.10;92.20;;;;;;5075266;28;20035;-85
2021/05/11 11:12:09;;;;;;;0.75;0.60;;;23.10;92.20;;;;;;5095174;28;20039;-84
2021/05/11 11:14:43;;;;;;;0.85;0.80;;;23.10;92.20;;;;;;5094498;28;20042;-84
2021/05/11 11:17:11;;;;;;;0.80;0.80;;;23.10;92.20;;;;;;5075108;28;20028;-84
2021/05/11 11:19:37;;;;;;;0.80;0.80;;;23.10;92.20;;;;;;5093094;28;20043;-85
2021/05/11 11:25:01;;;;;;;0.65;0.60;;;23.10;92.20;;;;;;5078164;28;20526;-85
2021/05/11 11:27:32;;;;;;;0.55;0.55;;;23.20;92.30;;;;;;5092915;28;20043;-85
2021/05/11 11:30:08;;;;;;;0.47;0.47;;;23.10;92.30;;;;;;5075054;28;20044;-84
2021/05/11 11:32:35;;;;;;;0.63;0.50;;;23.20;92.40;;;;;;5093127;28;20131;-85
2021/05/11 11:35:02;;;;;;;1.02;0.52;;;23.20;92.40;;;;;;5075328;28;20024;-85
2021/05/11 11:37:29;;;;;;;0.50;0.50;;;23.20;92.40;;;;;;5075133;28;20115;-84
2021/05/11 11:39:57;;;;;;;0.60;0.60;;;23.20;92.50;;;;;;5058170;28;20058;-85
2021/05/11 11:42:29;;;;;;;0.47;0.47;;;23.20;92.50;;;;;;5074655;28;20020;-85
2021/05/11 11:45:03;;;;;;;0.50;0.50;;;23.20;92.50;;;;;;5075148;28;20024;-85
2021/05/11 11:47:30;;;;;;;0.40;0.40;;;23.20;92.50;;;;;;5075001;28;20039;-85
2021/05/11 11:50:00;;;;;;;0.50;0.50;;;23.30;92.60;;;;;;5074842;28;20127;-85
2021/05/11 11:52:51;;;;;;;0.75;0.60;;;23.20;92.60;;;;;;5075098;28;20054;-85
2021/05/11 11:57:55;;;;;;;0.60;0.50;;;23.30;92.60;;;;;;5092819;28;20032;-86
2021/05/11 12:00:21;;;;;;;0.47;0.47;;;23.30;92.60;;;;;;5074786;28;20129;-85
2021/05/11 12:02:55;;;;;;;0.55;0.55;;;23.30;92.80;;;;;;5074456;28;20066;-86
2021/05/11 12:05:22;;;;;;;0.50;0.50;;;23.30;92.60;;;;;;5092561;28;20481;-85
2021/05/11 12:07:59;;;;;;;1.02;0.60;;;23.30;92.60;;;;;;5074375;28;20028;-85
2021/05/11 12:10:26;;;;;;;0.60;0.60;;;23.30;92.90;;;;;;5044460;28;20036;-86
2021/05/11 12:12:52;;;;;;;0.50;0.50;;;23.30;92.70;;;;;;5092329;28;20070;-86
2021/05/11 12:15:20;;;;;;;0.70;0.60;;;23.30;92.80;;;;;;5074537;28;20029;-86
2021/05/11 12:18:16;;;;;;;0.40;0.40;;;23.30;92.80;;;;;;5074489;28;20028;-84
2021/05/11 12:20:42;;;;;;;0.50;0.50;;;23.30;92.70;;;;;;5092690;28;20092;-85
2021/05/11 12:23:11;;;;;;;0.50;0.50;;;23.30;92.80;;;;;;5074670;28;20031;-84
2021/05/11 12:25:37;;;;;;;0.60;0.60;;;23.30;92.80;;;;;;5074231;28;20031;-85
2021/05/11 12:28:04;;;;;;;0.43;0.43;;;23.30;92.80;;;;;;5074343;28;20036;-85
2021/05/11 12:30:41;;;;;;;0.73;0.63;;;23.30;92.80;;;;;;5074650;28;20051;-85
2021/05/11 12:33:12;;;;;;;0.45;0.45;;;23.30;92.80;;;;;;5096602;28;20028;-85
2021/05/11 12:35:42;;;;;;;0.75;0.60;;;23.30;92.80;;;;;;5096259;28;20528;-86
2021/05/11 12:38:26;;;;;;;0.50;0.50;;;23.30;92.80;;;;;;5096478;28;20032;-85
2021/05/11 12:43:48;;;;;;;0.50;0.50;;;23.30;92.80;;;;;;5096387;28;20110;-85
2021/05/11 12:46:37;;;;;;;0.57;0.57;;;23.30;92.70;;;;;;5078306;28;20028;-85
2021/05/11 12:49:18;;;;;;;0.50;0.50;;;23.30;92.80;;;;;;5096474;28;20035;-84
2021/05/11 12:51:51;;;;;;;0.68;0.68;;;23.30;92.80;;;;;;5096859;28;20040;-85
2021/05/11 12:54:38;;;;;;;0.68;0.50;;;23.30;92.80;;;;;;5078233;28;20028;-85
2021/05/11 12:57:22;;;;;;;0.50;0.50;;;23.30;92.80;;;;;;5078141;28;20024;-86
2021/05/11 13:00:09;;;;;;;0.55;0.55;;;23.30;92.80;;;;;;5096151;28;20028;-84
2021/05/11 13:03:08;;;;;;;0.50;0.50;;;23.30;92.80;;;;;;5077761;28;20028;-83
2021/05/11 13:20:08;;;;;;;0.60;0.60;;;23.30;93.00;;;;;;5072058;28;20036;-85
2021/05/11 13:23:24;;;;;;;0.50;0.50;;;23.30;93.00;;;;;;5095835;28;20028;-85
2021/05/11 13:25:34;;;;;;;0.85;0.50;;;23.30;93.00;;;;;;5073133;28;20486;-85
2021/05/11 13:33:45;;;;;;;0.60;0.60;;;23.30;93.00;;;;;;5079813;28;20104;-84
2021/05/11 13:36:10;;;;;;;0.68;0.60;;;23.30;93.10;;;;;;5064463;28;20028;-84
2021/05/11 13:38:36;;;;;;;0.60;0.60;;;23.30;93.10;;;;;;5097187;28;20042;-84
2021/05/11 13:41:02;;;;;;;0.60;0.60;;;23.30;93.10;;;;;;5096741;28;20055;-85
2021/05/11 13:43:28;;;;;;;0.50;0.50;;;23.30;93.10;;;;;;5106471;28;20038;-85
2021/05/11 13:45:54;;;;;;;0.57;0.57;;;23.30;93.10;;;;;;5087861;28;20024;-85
2021/05/11 13:48:23;;;;;;;0.55;0.52;;;23.30;93.10;;;;;;5078468;28;20119;-84
2021/05/11 13:53:15;;;;;;;0.60;0.60;;;23.30;93.00;;;;;;5096732;28;20028;-84
2021/05/11 14:04:09;;;;;;;0.90;0.80;;;23.30;93.00;;;;;;5049353;28;20401;-85
2021/05/11 14:06:34;;;;;;;0.73;0.70;;;23.30;93.00;;;;;;5060320;28;20038;-85
2021/05/11 14:09:04;;;;;;;0.55;0.55;;;23.20;92.90;;;;;;5076402;28;20040;-85
2021/05/11 14:11:32;;;;;;;1.02;0.70;;;23.20;92.90;;;;;;5077016;28;20028;-85
2021/05/11 14:13:57;;;;;;;0.68;0.63;;;23.30;92.90;;;;;;5094325;28;20111;-85
2021/05/11 14:16:23;;;;;;;0.80;0.70;;;23.20;93.10;;;;;;5076644;28;20052;-85
2021/05/11 14:18:49;;;;;;;0.63;0.63;;;23.20;92.80;;;;;;5094371;28;20522;-86
2021/05/11 14:21:15;;;;;;;0.70;0.70;;;23.30;92.80;;;;;;5076734;28;20469;-85
2021/05/11 14:23:41;;;;;;;0.80;0.80;;;23.20;93.00;;;;;;5076341;28;20482;-85
2021/05/11 14:26:07;;;;;;;0.73;0.70;;;23.20;92.70;;;;;;5076399;28;20035;-84
2021/05/11 14:28:32;;;;;;;0.70;0.70;;;23.20;92.80;;;;;;5076037;28;20054;-84
2021/05/11 14:30:58;;;;;;;0.98;0.90;;;23.20;92.70;;;;;;5076332;28;20048;-84
2021/05/11 14:33:24;;;;;;;1.50;1.10;;;23.20;92.80;;;;;;5059865;28;20482;-86
2021/05/11 14:35:49;;;;;;;1.48;1.15;;;23.20;92.80;;;;;;5075181;28;20455;-86
2021/05/11 14:38:15;;;;;;;0.90;0.90;;;23.20;92.80;;;;;;5076088;28;20465;-86
2021/05/11 14:40:41;;;;;;;1.40;0.90;;;23.20;92.80;;;;;;5042688;28;20028;-87
2021/05/11 14:43:06;;;;;;;1.58;1.10;;;23.20;92.80;;;;;;5075809;28;20101;-86
2021/05/11 14:45:32;;;;;;;1.10;1.00;;;23.20;92.80;;;;;;5076083;28;20032;-86
2021/05/11 14:47:57;;;;;;;1.23;0.80;;;23.20;92.80;;;;;;5059003;28;20078;-86
2021/05/11 14:50:24;;;;;;;1.42;1.10;;;23.20;92.80;;;;;;5075721;28;20032;-88
2021/05/11 14:52:54;;;;;;;1.30;0.93;;;23.10;92.80;;;;;;5093593;28;20071;-88
2021/05/11 14:55:24;;;;;;;1.52;1.10;;;23.10;92.80;;;;;;5093456;28;20048;-86
2021/05/11 14:57:53;;;;;;;0.82;0.80;;;23.10;92.80;;;;;;5093682;28;20028;-87
2021/05/11 15:00:19;;;;;;;1.33;1.00;;;23.10;92.80;;;;;;5075834;28;20036;-86
2021/05/11 15:02:45;;;;;;;2.17;0.93;;;23.20;92.80;;;;;;5093796;28;20040;-86
2021/05/11 15:05:11;;;;;;;1.30;1.20;;;23.10;92.80;;;;;;5075440;28;20102;-86
2021/05/11 15:07:37;;;;;;;1.60;1.02;;;23.10;92.70;;;;;;5093967;28;20046;-86
2021/05/11 15:10:04;;;;;;;1.00;0.90;;;23.10;92.70;;;;;;5073189;28;20028;-85
2021/05/11 15:12:30;;;;;;;0.80;0.80;;;23.20;92.70;;;;;;5075234;28;20115;-85
2021/05/11 15:14:56;;;;;;;1.08;0.95;;;23.10;92.70;;;;;;5057994;28;20435;-85
2021/05/11 15:19:52;;;;;;;1.27;0.93;;;23.10;92.70;;;;;;5075497;28;20035;-85
2021/05/11 15:22:20;;;;;;;1.15;0.80;;;23.20;92.70;;;;;;5093835;28;20039;-85
2021/05/11 15:24:46;;;;;;;0.82;0.73;;;23.20;92.70;;;;;;5075055;28;20470;-85
2021/05/11 15:27:12;;;;;;;1.52;1.05;;;23.10;92.60;;;;;;5074891;28;20493;-86
2021/05/11 15:29:38;;;;;;;1.42;0.80;;;23.20;92.60;;;;;;5075310;28;20545;-86
2021/05/11 15:32:35;;;;;;;1.05;0.95;;;23.10;92.60;;;;;;5074869;28;20091;-86
2021/05/11 15:35:01;;;;;;;1.20;1.10;;;23.20;92.60;;;;;;5093107;28;20032;-86
2021/05/11 15:37:26;;;;;;;1.25;0.93;;;23.10;92.60;;;;;;5074750;28;20028;-86
2021/05/11 15:39:52;;;;;;;1.00;0.90;;;23.10;92.60;;;;;;5074667;28;20032;-86
2021/05/11 15:42:18;;;;;;;1.55;1.17;;;23.20;92.50;;;;;;5058616;28;20024;-85
2021/05/11 15:44:43;;;;;;;2.40;1.10;;;23.10;92.50;;;;;;5074982;28;20489;-86
2021/05/11 15:47:09;;;;;;;1.15;1.05;;;23.20;92.50;;;;;;5093041;28;20028;-87
2021/05/11 15:49:34;;;;;;;1.05;0.90;;;23.10;92.50;;;;;;5092879;28;20044;-86
2021/05/11 15:52:00;;;;;;;1.17;1.08;;;23.10;92.50;;;;;;5058950;28;20123;-86
2021/05/11 15:54:28;;;;;;;1.00;0.90;;;23.20;92.50;;;;;;5092750;28;20028;-86
2021/05/11 15:56:53;;;;;;;1.40;1.05;;;23.20;92.50;;;;;;5074892;28;20047;-85
2021/05/11 15:59:19;;;;;;;1.13;0.90;;;23.10;92.50;;;;;;5058046;28;20466;-86
2021/05/11 16:01:45;;;;;;;0.90;0.80;;;23.20;92.50;;;;;;5058361;28;20431;-86
2021/05/11 16:04:10;;;;;;;1.27;0.90;;;23.20;92.50;;;;;;5074523;28;20024;-86
2021/05/11 16:06:36;;;;;;;1.02;0.90;;;23.10;92.40;;;;;;5096516;28;20025;-86
2021/05/11 16:09:01;;;;;;;1.15;1.05;;;23.20;92.40;;;;;;5078018;28;20036;-87
2021/05/11 16:11:27;;;;;;;1.10;1.00;;;23.10;92.40;;;;;;5078701;28;20462;-85
2021/05/11 16:13:53;;;;;;;1.23;1.10;;;23.10;92.40;;;;;;5078472;28;20039;-86
2021/05/11 16:16:18;;;;;;;1.35;0.88;;;23.20;92.40;;;;;;5061658;28;20071;-85
2021/05/11 16:18:44;;;;;;;1.10;0.90;;;23.20;92.40;;;;;;5061538;28;20038;-85
2021/05/11 16:21:09;;;;;;;1.67;1.13;;;23.20;92.40;;;;;;5096255;28;20085;-86
2021/05/11 16:23:35;;;;;;;1.17;0.82;;;23.20;92.40;;;;;;5078269;28;20077;-85
2021/05/11 16:26:01;;;;;;;0.90;0.90;;;23.20;92.40;;;;;;5096403;28;20461;-86
2021/05/11 16:28:26;;;;;;;1.17;0.80;;;23.20;92.30;;;;;;5061666;28;20040;-85
2021/05/11 16:30:52;;;;;;;1.20;0.93;;;23.20;92.40;;;;;;5061529;28;20024;-85
2021/05/11 16:33:18;;;;;;;1.10;0.80;;;23.20;92.30;;;;;;5095845;28;20151;-85
2021/05/11 16:35:44;;;;;;;1.40;1.00;;;23.20;92.30;;;;;;5095505;28;20481;-88
2021/05/11 16:38:11;;;;;;;1.15;1.05;;;23.20;92.40;;;;;;5076970;28;20032;-87
2021/05/11 16:40:36;;;;;;;2.10;1.10;;;23.20;92.40;;;;;;5060545;28;20045;-86
2021/05/11 16:43:03;;;;;;;1.33;0.80;;;23.20;92.40;;;;;;5077644;28;20032;-86
2021/05/11 16:45:30;;;;;;;1.23;1.13;;;23.20;92.40;;;;;;5077862;28;20028;-85
2021/05/11 16:47:56;;;;;;;1.38;1.10;;;23.20;92.40;;;;;;5078091;28;20032;-85
2021/05/11 16:50:31;;;;;;;1.17;1.05;;;23.20;92.40;;;;;;5061345;28;20605;-86
2021/05/11 16:52:59;;;;;;;1.45;1.17;;;23.20;92.50;;;;;;5099810;28;20028;-84
2021/05/11 16:55:26;;;;;;;1.15;0.80;;;23.20;92.50;;;;;;5078319;28;20032;-84
2021/05/11 16:57:52;;;;;;;1.77;1.10;;;23.20;92.60;;;;;;5096030;28;20021;-85
2021/05/11 17:00:20;;;;;;;1.20;1.10;;;23.20;92.60;;;;;;5094600;28;20031;-85